CYYT

St. John's International Airport

St. John's, Canada
TAF AMD CYYT 251513Z 2515/2612 02010G20KT P6SM FEW020 BKN030 TEMPO 2515/2522 P6SM -SHRA BKN020 FM252200 33010KT P6SM FEW050 BECMG 2601/2603 24005KT FM261100 21010G20KT P6SM BKN150 RMK NXT FCST BY 251800Z
Issued Valid From Valid To
Sep-25 @ 15:13 UTC
(2 hours ago)
Sep-25 @ 15:00 UTC
(2 hours ago)
Sep-26 @ 12:00 UTC
(in 19 hours)
Sep-25 @ 15:00 to Sep-25 @ 22:00
TAF AMD CYYT 251513Z 2515/2612 02010G20KT P6SM FEW020 BKN030
Wind Visibility Clouds
20° at 10 knots
 Gusting to 20 knots
Greater than 6 miles
  • Few at 2,000' AGL
  • Broken at 3,000' AGL
Temporary Sep-25 @ 15:00 to Sep-25 @ 22:00
TEMPO 2515/2522 P6SM -SHRA BKN020
Visibility Clouds Conditions
Greater than 6 miles
  • Broken at 2,000' AGL
  • Light Rain
From Sep-25 @ 22:00 to Sep-26 @ 01:00
FM252200 33010KT P6SM FEW050
Wind Visibility Clouds
330° at 10 knots Greater than 6 miles
  • Few at 5,000' AGL
Becoming Sep-26 @ 01:00 to Sep-26 @ 11:00
BECMG 2601/2603 24005KT
Wind Visibility Clouds
240° at 5 knots Greater than 6 miles
  • Few at 5,000' AGL
From Sep-26 @ 11:00 to Sep-26 @ 12:00
FM261100 21010G20KT P6SM BKN150 RMK NXT FCST BY 251800Z
Wind Visibility Clouds
210° at 10 knots
 Gusting to 20 knots
Greater than 6 miles
  • Broken at 15,000' AGL
TAF AMD CYYT 251513Z 2515/2612 02010G20KT P6SM FEW020 BKN030 TEMPO 2515/2522 P6SM -SHRA BKN020 FM252200 33010KT P6SM FEW050 BECMG 2601/2603 24005KT FM261100 21010G20KT P6SM BKN150 RMK NXT FCST BY 251800Z
Issued Sep-25 @ 15:13 UTC
(2 hours ago)
Valid From Sep-25 @ 15:00 UTC
(2 hours ago)
Valid To Sep-26 @ 12:00 UTC
(in 19 hours)
Sep-25 @ 15:00 - Sep-25 @ 22:00
Wind Visibility
20° at 10 knots
 Gusting to 20 knots
Greater than 6 miles
Clouds
  • Few at 2,000' AGL
  • Broken at 3,000' AGL
Temporary Sep-25 @ 15:00 - Sep-25 @ 22:00
Clouds
  • Broken at 2,000' AGL
Conditions
  • Light Rain
From Sep-25 @ 22:00 - Sep-26 @ 01:00
Wind Visibility
330° at 10 knots Greater than 6 miles
Clouds
  • Few at 5,000' AGL
Becoming Sep-26 @ 01:00 - Sep-26 @ 11:00
Wind Visibility
240° at 5 knots Greater than 6 miles
Clouds
  • Few at 5,000' AGL
From Sep-26 @ 11:00 - Sep-26 @ 12:00
Wind Visibility
210° at 10 knots
 Gusting to 20 knots
Greater than 6 miles
Clouds
  • Broken at 15,000' AGL